Time;durP1;ratioP1;P1;durP2;ratioP2;P2;SDS_P1;SDS_P2;PMS_P1;PMS_P2;Temp;Humidity;BMP_temperature;BMP_pressure;BME280_temperature;BME280_humidity;BME280_pressure;Samples;Min_cycle;Max_cycle;Signal;HPM_P1;HPM_P2
2022/06/23 00:00:00;;;;;;;3.92;3.00;;;15.00;99.90;;;;;;5088667;27;20051;-84
2022/06/23 00:02:33;;;;;;;4.38;2.97;;;15.00;99.90;;;;;;5090713;27;20063;-86
2022/06/23 00:05:03;;;;;;;3.28;2.85;;;15.00;99.90;;;;;;5091638;27;20500;-85
2022/06/23 00:07:33;;;;;;;4.20;2.75;;;15.00;99.90;;;;;;5089795;27;20043;-86
2022/06/23 00:10:13;;;;;;;3.15;2.75;;;14.90;99.90;;;;;;5109850;28;20129;-85
2022/06/23 00:12:41;;;;;;;3.78;2.90;;;15.00;99.90;;;;;;5091238;27;20092;-86
2022/06/23 00:15:07;;;;;;;5.32;3.15;;;14.90;99.90;;;;;;5093005;27;20495;-85
2022/06/23 00:17:45;;;;;;;4.25;3.30;;;14.30;99.90;;;;;;5085569;27;20042;-85
2022/06/23 00:20:19;;;;;;;3.40;3.00;;;14.90;99.90;;;;;;5086220;27;20047;-85
2022/06/23 00:22:52;;;;;;;4.15;2.80;;;14.80;99.90;;;;;;5096895;27;20393;-85
2022/06/23 00:25:37;;;;;;;3.28;2.97;;;14.20;99.90;;;;;;5090294;28;20046;-85
2022/06/23 00:28:10;;;;;;;4.13;3.10;;;15.00;99.90;;;;;;5083614;28;20062;-85
2022/06/23 00:30:39;;;;;;;4.18;2.95;;;14.70;99.90;;;;;;5089810;28;20404;-85
2022/06/23 00:33:14;;;;;;;3.42;3.10;;;14.70;99.90;;;;;;5086780;28;20517;-85
2022/06/23 00:35:40;;;;;;;4.28;3.10;;;14.70;99.90;;;;;;5089577;28;20654;-85
2022/06/23 00:38:23;;;;;;;4.95;3.17;;;14.70;99.90;;;;;;5070411;28;20134;-85
2022/06/23 00:40:49;;;;;;;4.97;2.80;;;14.40;99.90;;;;;;5087458;28;20427;-85
2022/06/23 00:43:17;;;;;;;3.85;3.15;;;14.60;99.90;;;;;;5105629;28;20393;-84
2022/06/23 00:45:52;;;;;;;3.78;3.10;;;14.60;99.90;;;;;;5089942;28;20393;-85
2022/06/23 00:48:36;;;;;;;4.00;3.27;;;14.60;99.90;;;;;;5090646;28;20043;-86
2022/06/23 00:51:17;;;;;;;3.42;3.08;;;14.50;99.90;;;;;;5087099;28;20051;-84
2022/06/23 00:53:56;;;;;;;4.07;2.97;;;13.50;99.90;;;;;;5090093;27;20093;-85
2022/06/23 00:56:28;;;;;;;4.13;3.40;;;14.40;99.90;;;;;;5128631;27;20039;-85
2022/06/23 00:59:05;;;;;;;3.65;3.15;;;14.30;99.90;;;;;;5092407;27;20043;-85
2022/06/23 01:01:39;;;;;;;3.88;3.20;;;14.30;99.90;;;;;;5096073;27;20527;-85
2022/06/23 01:04:21;;;;;;;3.47;2.67;;;14.30;99.90;;;;;;5095582;27;20046;-85
2022/06/23 01:07:17;;;;;;;4.30;3.00;;;14.30;99.90;;;;;;5094267;27;20056;-85
2022/06/23 01:09:54;;;;;;;3.95;3.13;;;14.30;99.90;;;;;;5093100;27;20039;-85
2022/06/23 01:12:29;;;;;;;3.53;3.00;;;14.20;99.90;;;;;;5090974;27;20051;-86
2022/06/23 01:15:24;;;;;;;3.75;2.97;;;14.30;99.90;;;;;;5088368;27;20472;-85
2022/06/23 01:17:52;;;;;;;3.92;3.40;;;14.20;99.90;;;;;;5089446;27;20047;-85
2022/06/23 01:20:30;;;;;;;3.33;2.80;;;14.20;99.90;;;;;;5093909;27;20073;-85
2022/06/23 01:23:23;;;;;;;4.03;3.20;;;14.20;99.90;;;;;;5090308;27;20433;-85
2022/06/23 01:26:06;;;;;;;3.72;2.67;;;13.40;99.90;;;;;;5093745;27;20039;-85
2022/06/23 01:28:41;;;;;;;3.70;2.92;;;14.20;99.90;;;;;;5096115;27;20061;-85
2022/06/23 01:31:25;;;;;;;3.50;3.20;;;14.20;99.90;;;;;;5094587;27;20096;-85
2022/06/23 01:34:27;;;;;;;3.80;3.35;;;14.10;99.90;;;;;;5091294;27;20047;-85
2022/06/23 01:37:02;;;;;;;3.88;3.05;;;14.10;99.90;;;;;;5108456;27;20051;-84
2022/06/23 01:39:45;;;;;;;;;;;14.10;99.90;;;;;;5093810;27;20082;-85
2022/06/23 01:42:35;;;;;;;4.20;3.22;;;14.00;99.90;;;;;;5094549;27;19927;-85
2022/06/23 01:45:09;;;;;;;4.07;2.80;;;14.00;99.90;;;;;;5090564;27;20047;-85
2022/06/23 01:47:41;;;;;;;4.32;3.20;;;13.90;99.90;;;;;;5110740;27;20039;-85
2022/06/23 01:50:13;;;;;;;3.67;2.88;;;13.90;99.90;;;;;;5094779;27;20051;-86
2022/06/23 01:52:45;;;;;;;4.00;3.17;;;13.60;99.90;;;;;;5093441;27;20089;-85
2022/06/23 01:55:19;;;;;;;4.07;3.17;;;13.90;99.90;;;;;;5110865;27;20055;-85
2022/06/23 01:57:52;;;;;;;3.92;2.80;;;13.90;99.90;;;;;;5087312;27;20058;-85
2022/06/23 02:00:21;;;;;;;4.18;3.50;;;13.80;99.90;;;;;;5092611;27;20051;-85
2022/06/23 02:03:22;;;;;;;4.35;3.45;;;13.80;99.90;;;;;;5089534;27;20446;-85
2022/06/23 02:05:54;;;;;;;4.65;3.72;;;13.80;99.90;;;;;;5092145;27;20075;-84
2022/06/23 02:08:37;;;;;;;4.25;3.45;;;13.80;99.90;;;;;;5089357;27;20579;-85
2022/06/23 02:11:29;;;;;;;4.30;3.83;;;13.90;99.90;;;;;;5094888;27;20576;-86
2022/06/23 02:14:20;;;;;;;6.30;4.13;;;13.90;99.90;;;;;;5090338;27;20551;-85
2022/06/23 02:16:51;;;;;;;4.50;3.50;;;13.80;99.90;;;;;;5108218;27;20102;-85
2022/06/23 02:19:44;;;;;;;5.10;4.10;;;13.80;99.90;;;;;;5092331;27;20043;-85
2022/06/23 02:22:20;;;;;;;5.40;4.78;;;13.80;99.90;;;;;;5088136;27;20051;-84
2022/06/23 02:24:55;;;;;;;6.43;5.07;;;13.70;99.90;;;;;;5089190;27;20070;-85
2022/06/23 02:28:02;;;;;;;5.63;5.00;;;13.80;99.90;;;;;;5109105;27;20070;-84
2022/06/23 02:31:01;;;;;;;6.32;5.32;;;13.80;99.90;;;;;;5079903;27;20043;-84
2022/06/23 02:34:00;;;;;;;6.10;4.65;;;13.80;99.90;;;;;;5102169;27;20054;-85
2022/06/23 02:36:41;;;;;;;5.60;4.57;;;13.70;99.90;;;;;;5083029;27;20771;-85
2022/06/23 02:39:24;;;;;;;5.60;4.80;;;13.70;99.90;;;;;;5091926;27;20082;-85
2022/06/23 02:41:59;;;;;;;6.00;5.18;;;13.70;99.90;;;;;;5108754;27;20518;-85
2022/06/23 02:44:37;;;;;;;6.10;5.07;;;13.70;99.90;;;;;;5090747;27;20039;-85
2022/06/23 02:47:12;;;;;;;6.70;4.60;;;13.70;99.90;;;;;;5086839;27;20300;-85
2022/06/23 02:49:44;;;;;;;7.78;5.07;;;13.70;99.90;;;;;;5093464;27;20514;-85
2022/06/23 02:52:23;;;;;;;7.82;5.05;;;13.70;99.90;;;;;;5088662;27;20104;-85
2022/06/23 02:54:52;;;;;;;5.45;4.75;;;13.70;99.90;;;;;;5089182;27;20092;-85
2022/06/23 02:57:23;;;;;;;6.28;5.20;;;13.60;99.90;;;;;;5091340;27;20043;-85
2022/06/23 03:00:07;;;;;;;9.45;6.45;;;13.60;99.90;;;;;;5087564;27;20059;-85
2022/06/23 03:02:41;;;;;;;6.88;5.53;;;13.60;99.90;;;;;;5090832;27;20039;-85
2022/06/23 03:05:25;;;;;;;6.68;5.50;;;13.60;99.90;;;;;;5104623;27;20035;-84
2022/06/23 03:07:58;;;;;;;6.68;5.72;;;13.60;99.90;;;;;;5087336;27;20508;-84
2022/06/23 03:10:28;;;;;;;7.63;6.32;;;13.60;99.90;;;;;;5089108;27;20044;-84
2022/06/23 03:13:15;;;;;;;6.60;5.90;;;13.60;99.90;;;;;;5087473;27;20048;-85
2022/06/23 03:15:47;;;;;;;;;;;13.50;99.90;;;;;;5087132;27;20470;-86
2022/06/23 03:18:24;;;;;;;8.38;6.10;;;13.50;99.90;;;;;;5094065;27;19946;-85
2022/06/23 03:20:56;;;;;;;7.68;6.07;;;13.50;99.90;;;;;;5092807;27;20377;-85
2022/06/23 03:24:03;;;;;;;6.60;5.25;;;13.40;99.90;;;;;;5084453;27;20083;-85
2022/06/23 03:26:50;;;;;;;7.78;6.22;;;13.50;99.90;;;;;;5093855;27;20098;-85
2022/06/23 03:29:16;;;;;;;8.20;6.03;;;13.40;99.90;;;;;;5093786;27;20052;-84
2022/06/23 03:32:01;;;;;;;8.07;6.32;;;13.40;99.90;;;;;;5085799;27;20376;-85
2022/06/23 03:34:43;;;;;;;7.40;6.50;;;13.40;99.90;;;;;;5085560;27;20470;-85
2022/06/23 03:37:18;;;;;;;7.72;6.93;;;12.50;99.90;;;;;;5087217;27;20136;-84
2022/06/23 03:43:21;;;;;;;7.00;6.25;;;13.40;99.90;;;;;;5065479;27;20047;-84
2022/06/23 03:46:06;;;;;;;8.05;6.70;;;13.30;99.90;;;;;;5086602;27;20064;-85
2022/06/23 03:48:51;;;;;;;8.23;6.53;;;12.70;99.90;;;;;;5094393;27;20054;-85
2022/06/23 03:51:20;;;;;;;7.20;6.20;;;13.40;99.90;;;;;;5086895;27;20512;-85
2022/06/23 03:53:52;;;;;;;8.18;6.10;;;13.40;99.90;;;;;;5102447;28;20055;-85
2022/06/23 03:56:22;;;;;;;8.10;6.60;;;13.40;99.90;;;;;;5102353;27;20047;-84
2022/06/23 03:58:59;;;;;;;7.68;6.22;;;13.40;99.90;;;;;;5092627;27;20396;-86
2022/06/23 04:01:50;;;;;;;7.85;6.68;;;13.40;99.90;;;;;;5086695;27;20578;-84
2022/06/23 04:04:22;;;;;;;8.00;6.57;;;13.50;99.90;;;;;;5071352;27;20047;-84
2022/06/23 04:06:51;;;;;;;8.80;7.00;;;13.50;99.90;;;;;;5096647;27;20051;-85
2022/06/23 04:09:32;;;;;;;7.93;6.78;;;13.50;99.90;;;;;;5095820;28;20488;-85
2022/06/23 04:12:18;;;;;;;8.13;6.57;;;13.40;99.90;;;;;;5110394;27;20101;-84
2022/06/23 04:14:59;;;;;;;8.38;6.93;;;13.50;99.90;;;;;;5076017;27;20511;-85
2022/06/23 04:17:51;;;;;;;8.57;7.32;;;13.40;99.90;;;;;;5086781;27;20046;-84
2022/06/23 04:20:21;;;;;;;8.60;6.80;;;13.30;99.90;;;;;;5090551;28;20101;-85
2022/06/23 04:23:13;;;;;;;9.68;6.55;;;13.60;99.90;;;;;;5087670;27;20051;-84
2022/06/23 04:26:02;;;;;;;8.10;6.72;;;13.60;99.90;;;;;;5093261;28;20130;-84
2022/06/23 04:28:47;;;;;;;10.45;7.50;;;13.70;99.90;;;;;;5100898;28;20051;-84
2022/06/23 04:31:18;;;;;;;7.15;6.38;;;13.70;99.90;;;;;;5091934;28;20043;-84
2022/06/23 04:33:46;;;;;;;8.70;7.05;;;13.70;99.90;;;;;;5092096;28;20050;-84
2022/06/23 04:36:29;;;;;;;10.60;8.15;;;13.80;99.90;;;;;;5085654;28;20043;-84
2022/06/23 04:39:16;;;;;;;8.43;7.53;;;13.70;99.90;;;;;;5092412;28;20082;-84
2022/06/23 04:41:49;;;;;;;7.75;6.95;;;13.70;99.90;;;;;;5089494;28;20133;-84
2022/06/23 04:44:46;;;;;;;8.07;6.93;;;13.80;99.90;;;;;;5105088;28;20051;-85
2022/06/23 04:47:22;;;;;;;8.73;6.97;;;13.80;99.90;;;;;;5092039;28;20066;-84
2022/06/23 04:49:56;;;;;;;10.27;8.00;;;13.90;99.90;;;;;;5086382;28;20165;-85
2022/06/23 04:52:32;;;;;;;12.57;7.93;;;13.90;99.90;;;;;;5103380;28;20139;-84
2022/06/23 04:55:17;;;;;;;;;;;14.40;99.90;;;;;;5085699;28;20059;-86
2022/06/23 04:57:49;;;;;;;9.25;7.30;;;14.50;99.90;;;;;;5086956;28;20002;-85
2022/06/23 05:00:25;;;;;;;11.05;7.80;;;14.10;99.90;;;;;;5084489;28;20059;-85
2022/06/23 05:02:58;;;;;;;9.63;7.68;;;14.10;99.90;;;;;;5085713;28;20537;-85
2022/06/23 05:05:33;;;;;;;10.25;7.85;;;14.20;99.90;;;;;;5086413;28;20069;-86
2022/06/23 05:08:15;;;;;;;9.68;7.28;;;14.30;99.90;;;;;;5091527;28;20048;-85
2022/06/23 05:10:54;;;;;;;9.35;7.07;;;14.40;99.90;;;;;;5088452;28;20096;-85
2022/06/23 05:13:29;;;;;;;9.55;7.38;;;14.40;99.90;;;;;;5092097;28;20130;-84
2022/06/23 05:16:04;;;;;;;8.52;7.63;;;14.50;99.90;;;;;;5088840;28;20131;-85
2022/06/23 05:19:05;;;;;;;10.15;8.27;;;14.50;99.90;;;;;;5093413;28;20095;-85
2022/06/23 05:21:40;;;;;;;9.93;8.13;;;14.70;99.90;;;;;;5089387;28;20137;-85
2022/06/23 05:24:14;;;;;;;8.25;7.32;;;14.80;99.90;;;;;;5084357;28;20044;-85
2022/06/23 05:26:48;;;;;;;9.35;7.10;;;14.90;99.90;;;;;;5093220;28;20135;-85
2022/06/23 05:29:20;;;;;;;8.23;6.55;;;14.90;99.90;;;;;;5093751;28;20047;-85
2022/06/23 05:31:49;;;;;;;8.57;7.15;;;15.10;99.90;;;;;;5092107;28;20130;-85
2022/06/23 05:34:22;;;;;;;10.93;8.00;;;15.10;99.90;;;;;;5085978;28;20051;-85
2022/06/23 05:37:06;;;;;;;8.98;6.72;;;15.20;99.90;;;;;;5100994;28;20041;-85
2022/06/23 05:39:57;;;;;;;8.43;7.32;;;15.40;99.90;;;;;;5083889;28;20508;-85
2022/06/23 05:42:32;;;;;;;8.38;6.78;;;16.00;99.90;;;;;;5088920;27;20445;-84
2022/06/23 05:45:04;;;;;;;10.93;7.10;;;15.60;99.90;;;;;;5088858;27;20085;-84
2022/06/23 05:47:32;;;;;;;7.05;6.30;;;15.00;99.90;;;;;;5103486;27;20059;-84
2022/06/23 05:50:07;;;;;;;9.93;6.70;;;15.50;99.90;;;;;;5100953;27;20178;-84
2022/06/23 05:52:45;;;;;;;7.75;6.80;;;15.90;99.90;;;;;;5104667;27;20047;-84
2022/06/23 05:55:20;;;;;;;8.80;6.55;;;16.00;99.90;;;;;;5087466;27;20055;-85
2022/06/23 05:57:58;;;;;;;6.83;5.57;;;16.20;99.90;;;;;;5105130;27;20044;-85
2022/06/23 06:00:45;;;;;;;9.10;6.60;;;16.30;99.90;;;;;;5087860;27;20339;-85
2022/06/23 06:03:19;;;;;;;6.72;6.00;;;16.50;99.90;;;;;;5088528;27;20055;-85
2022/06/23 06:05:48;;;;;;;9.43;6.57;;;16.50;99.90;;;;;;5104656;27;20086;-85
2022/06/23 06:08:19;;;;;;;7.88;6.38;;;16.70;99.90;;;;;;5087570;27;20051;-86
2022/06/23 06:10:47;;;;;;;7.10;6.40;;;16.80;99.90;;;;;;5088154;28;20578;-84
2022/06/23 06:13:22;;;;;;;8.05;6.18;;;16.90;99.90;;;;;;5104575;27;20119;-84
2022/06/23 06:15:52;;;;;;;7.13;6.13;;;17.10;99.90;;;;;;5088473;27;20051;-84
2022/06/23 06:18:21;;;;;;;7.70;6.10;;;17.30;99.90;;;;;;5087262;27;20043;-85
2022/06/23 06:20:47;;;;;;;7.47;5.80;;;17.40;99.90;;;;;;5086899;27;20532;-85
2022/06/23 06:23:22;;;;;;;9.55;6.15;;;17.50;99.90;;;;;;5086068;27;20082;-85
2022/06/23 06:25:49;;;;;;;9.55;6.18;;;17.60;99.90;;;;;;5086696;27;20047;-85
2022/06/23 06:28:20;;;;;;;7.30;6.03;;;17.80;99.90;;;;;;5088144;27;20096;-85
2022/06/23 06:30:54;;;;;;;8.32;6.00;;;17.90;99.90;;;;;;5089639;27;20141;-85
2022/06/23 06:33:31;;;;;;;6.95;5.43;;;18.10;99.90;;;;;;5094432;27;20043;-86
2022/06/23 06:35:57;;;;;;;6.55;5.75;;;18.30;99.90;;;;;;5087065;27;20126;-85
2022/06/23 06:38:24;;;;;;;7.68;5.97;;;18.40;99.90;;;;;;5070892;27;20484;-85
2022/06/23 06:40:56;;;;;;;8.43;5.65;;;18.50;99.90;;;;;;5086904;27;20047;-84
2022/06/23 06:43:29;;;;;;;7.50;5.20;;;18.70;99.90;;;;;;5087199;27;20047;-85
2022/06/23 06:45:57;;;;;;;7.68;5.35;;;18.90;99.90;;;;;;5084822;27;20666;-86
2022/06/23 06:48:32;;;;;;;7.38;5.45;;;19.00;99.90;;;;;;5088888;27;20054;-86
2022/06/23 06:51:08;;;;;;;7.57;5.35;;;18.50;99.90;;;;;;5095428;27;20500;-87
2022/06/23 06:53:36;;;;;;;8.00;5.32;;;19.40;99.90;;;;;;5085008;27;20055;-86
2022/06/23 06:56:16;;;;;;;6.93;5.15;;;19.60;99.90;;;;;;5085593;27;20055;-86
2022/06/23 06:58:52;;;;;;;6.15;4.93;;;19.80;99.90;;;;;;5094436;27;20435;-87
2022/06/23 07:01:23;;;;;;;9.25;5.63;;;20.10;99.90;;;;;;5094134;27;20050;-86
2022/06/23 07:03:52;;;;;;;5.82;5.22;;;20.30;99.90;;;;;;5105100;27;20047;-87
2022/06/23 07:06:39;;;;;;;7.53;4.82;;;20.50;99.90;;;;;;5107032;27;20104;-86
2022/06/23 07:09:16;;;;;;;5.85;5.10;;;20.70;99.90;;;;;;5099844;27;20141;-87
2022/06/23 07:11:45;;;;;;;6.88;4.63;;;20.90;99.90;;;;;;5087525;27;20491;-87
2022/06/23 07:14:52;;;;;;;6.75;5.43;;;21.10;99.90;;;;;;5093637;27;20035;-87
2022/06/23 07:17:21;;;;;;;;;;;21.40;99.90;;;;;;5085574;27;20050;-87
2022/06/23 07:20:16;;;;;;;11.02;4.50;;;21.60;99.90;;;;;;5097347;27;19920;-86
2022/06/23 07:22:53;;;;;;;6.80;5.00;;;21.40;99.90;;;;;;5087438;27;20058;-87
2022/06/23 07:25:37;;;;;;;8.50;5.22;;;22.10;99.90;;;;;;5109604;27;20138;-87
2022/06/23 07:28:18;;;;;;;5.88;4.90;;;22.30;99.90;;;;;;5086086;27;20043;-87
2022/06/23 07:30:49;;;;;;;6.20;5.03;;;23.00;99.90;;;;;;5101621;27;20039;-87
2022/06/23 07:33:25;;;;;;;5.30;4.28;;;22.70;99.90;;;;;;5085016;27;20039;-85
2022/06/23 07:35:56;;;;;;;6.20;4.18;;;23.00;99.90;;;;;;5093733;27;20495;-85
2022/06/23 07:38:37;;;;;;;5.45;4.53;;;23.10;99.90;;;;;;5086772;27;20043;-86
2022/06/23 07:41:40;;;;;;;6.65;4.70;;;22.70;99.90;;;;;;5093647;27;20077;-85
2022/06/23 07:44:16;;;;;;;6.13;4.32;;;23.60;99.90;;;;;;5082367;27;20139;-85
2022/06/23 07:46:42;;;;;;;5.95;4.20;;;23.80;99.90;;;;;;5101674;27;20075;-85
2022/06/23 07:49:09;;;;;;;6.65;5.10;;;24.00;99.90;;;;;;5085806;27;20561;-85
2022/06/23 07:51:39;;;;;;;5.82;4.38;;;24.20;99.90;;;;;;5086234;27;20048;-85
2022/06/23 07:54:10;;;;;;;5.97;4.28;;;24.50;99.90;;;;;;5101306;27;20138;-85
2022/06/23 07:56:39;;;;;;;5.65;4.18;;;24.60;99.90;;;;;;5093730;28;20134;-86
2022/06/23 07:59:11;;;;;;;4.95;4.40;;;24.70;99.90;;;;;;5092864;27;20059;-86
2022/06/23 08:02:03;;;;;;;5.35;3.90;;;25.00;99.90;;;;;;5101863;27;20193;-86
2022/06/23 08:04:41;;;;;;;5.70;4.28;;;25.20;99.90;;;;;;5103295;27;20031;-86
2022/06/23 08:07:09;;;;;;;4.78;4.07;;;25.40;99.90;;;;;;5085696;27;20075;-85
2022/06/23 08:09:44;;;;;;;5.20;3.83;;;25.60;99.90;;;;;;5101430;28;20051;-85
2022/06/23 08:18:06;;;;;;;6.65;3.90;;;26.20;99.90;;;;;;5101694;27;20492;-86
2022/06/23 08:20:36;;;;;;;6.38;4.85;;;26.40;99.90;;;;;;5085363;27;20047;-86
2022/06/23 08:23:04;;;;;;;4.47;4.03;;;26.50;99.90;;;;;;5084027;27;20096;-85
2022/06/23 08:25:30;;;;;;;7.60;4.47;;;26.70;99.90;;;;;;5084030;27;20055;-86
2022/06/23 08:27:58;;;;;;;5.10;4.07;;;26.90;99.90;;;;;;5103303;27;20582;-86
2022/06/23 08:30:27;;;;;;;5.55;3.75;;;27.00;99.90;;;;;;5084745;28;20048;-87
2022/06/23 08:32:55;;;;;;;6.03;3.92;;;27.20;99.90;;;;;;5066694;28;20044;-86
2022/06/23 08:35:31;;;;;;;5.40;3.97;;;27.40;99.90;;;;;;5092663;28;20047;-86
2022/06/23 08:38:02;;;;;;;5.88;3.72;;;27.70;99.90;;;;;;5084731;28;20047;-86
2022/06/23 08:40:48;;;;;;;4.45;3.45;;;28.30;99.90;;;;;;5092632;28;20062;-87
2022/06/23 08:43:14;;;;;;;4.53;3.95;;;28.10;99.80;;;;;;5084942;28;20070;-86
2022/06/23 08:45:48;;;;;;;5.50;3.50;;;28.30;99.50;;;;;;5084252;28;20051;-86
2022/06/23 08:48:25;;;;;;;4.17;3.40;;;28.50;99.20;;;;;;5101419;28;20071;-86
2022/06/23 08:51:02;;;;;;;5.05;3.50;;;28.80;98.60;;;;;;5084086;28;20103;-87
2022/06/23 08:53:52;;;;;;;5.18;2.92;;;29.00;97.80;;;;;;5084814;28;20062;-87
2022/06/23 08:56:52;;;;;;;4.72;3.08;;;29.20;97.10;;;;;;5085875;28;20373;-87
2022/06/23 08:59:34;;;;;;;4.85;3.10;;;29.30;96.70;;;;;;5093095;28;20484;-86
2022/06/23 09:02:26;;;;;;;3.90;3.20;;;29.60;96.70;;;;;;5097204;28;20048;-86
2022/06/23 09:05:10;;;;;;;5.07;2.85;;;29.70;94.20;;;;;;5090908;28;20043;-86
2022/06/23 09:07:48;;;;;;;6.75;3.67;;;29.80;95.30;;;;;;5085163;28;20046;-86
2022/06/23 09:10:27;;;;;;;4.93;3.42;;;29.80;94.20;;;;;;5091543;28;20049;-87
2022/06/23 09:13:28;;;;;;;5.60;3.00;;;29.70;93.30;;;;;;5086798;28;20043;-87
2022/06/23 09:16:08;;;;;;;4.80;3.38;;;29.90;93.90;;;;;;5087647;27;20055;-87
2022/06/23 09:19:02;;;;;;;4.22;2.95;;;30.00;93.90;;;;;;5091821;27;20076;-85
2022/06/23 09:21:33;;;;;;;5.43;3.15;;;30.20;92.50;;;;;;5095310;27;20100;-87
2022/06/23 09:24:04;;;;;;;4.95;3.28;;;30.60;93.10;;;;;;5115347;27;20054;-86
2022/06/23 09:26:39;;;;;;;5.70;3.00;;;30.90;91.10;;;;;;5089299;27;20051;-86
2022/06/23 09:29:39;;;;;;;3.70;2.70;;;31.20;90.70;;;;;;5105182;27;20546;-86
2022/06/23 09:32:31;;;;;;;3.45;2.60;;;31.20;90.60;;;;;;5090211;27;20055;-86
2022/06/23 09:35:12;;;;;;;5.28;2.78;;;31.40;90.40;;;;;;5085296;27;20071;-87
2022/06/23 09:38:14;;;;;;;4.00;2.00;;;31.30;87.70;;;;;;5087992;27;20057;-87
2022/06/23 09:40:41;;;;;;;3.35;2.70;;;32.00;86.70;;;;;;5094352;27;20059;-87
2022/06/23 09:43:44;;;;;;;3.40;2.50;;;31.90;86.30;;;;;;5113271;27;20373;-86
2022/06/23 09:46:28;;;;;;;3.80;2.67;;;32.10;82.90;;;;;;5095470;27;20057;-87
2022/06/23 09:48:59;;;;;;;3.42;2.38;;;32.30;82.80;;;;;;5096635;27;20436;-87
2022/06/23 09:52:00;;;;;;;3.20;2.35;;;32.50;81.00;;;;;;5104926;27;20055;-87
2022/06/23 09:54:46;;;;;;;3.67;2.00;;;32.60;79.30;;;;;;5087389;27;20538;-86
2022/06/23 09:57:58;;;;;;;3.60;2.22;;;32.80;77.50;;;;;;5087569;27;20051;-86
2022/06/23 10:00:57;;;;;;;3.47;2.30;;;33.00;76.20;;;;;;5000804;28;20095;-87
2022/06/23 10:04:07;;;;;;;4.57;2.55;;;33.10;76.10;;;;;;5012957;28;20384;-87
2022/06/23 10:06:51;;;;;;;4.50;2.60;;;33.10;75.00;;;;;;5089884;27;20401;-87
2022/06/23 10:10:02;;;;;;;3.58;2.35;;;33.00;71.50;;;;;;5095163;27;20055;-87
2022/06/23 10:12:49;;;;;;;3.58;2.50;;;32.90;74.40;;;;;;5076907;27;20414;-86
2022/06/23 10:15:31;;;;;;;3.28;2.00;;;33.00;72.70;;;;;;5089052;27;20090;-87
2022/06/23 10:18:15;;;;;;;4.88;1.95;;;33.10;70.60;;;;;;5088753;27;20050;-87
2022/06/23 10:21:04;;;;;;;3.95;2.00;;;33.20;71.00;;;;;;5086173;27;20114;-86
2022/06/23 10:24:13;;;;;;;3.78;2.03;;;33.40;70.50;;;;;;5104896;27;20053;-87
2022/06/23 10:26:57;;;;;;;3.95;2.10;;;33.70;70.40;;;;;;5006680;28;20057;-86
2022/06/23 10:29:45;;;;;;;6.13;1.95;;;33.80;68.90;;;;;;5093546;27;20059;-87
2022/06/23 10:32:43;;;;;;;2.30;1.55;;;34.00;65.70;;;;;;5094443;27;20179;-86
2022/06/23 10:35:52;;;;;;;4.13;1.60;;;33.70;66.30;;;;;;5070209;27;20055;-87
2022/06/23 10:38:37;;;;;;;2.88;1.58;;;34.00;65.40;;;;;;5098146;27;20051;-87
2022/06/23 10:41:51;;;;;;;3.78;1.45;;;34.20;66.10;;;;;;5089773;27;20048;-88
2022/06/23 10:44:44;;;;;;;3.80;1.63;;;34.30;63.10;;;;;;5062850;27;20422;-86
2022/06/23 10:48:02;;;;;;;;;;;;;;;;;;;;;
2022/06/23 10:51:02;;;;;;;3.72;1.67;;;34.40;62.00;;;;;;5102637;27;20544;-86
2022/06/23 10:54:07;;;;;;;3.88;1.42;;;33.90;60.40;;;;;;5113658;27;20054;-86
2022/06/23 10:57:23;;;;;;;4.40;1.75;;;33.90;61.20;;;;;;5094305;27;20065;-86
2022/06/23 11:00:49;;;;;;;2.75;1.40;;;33.90;60.60;;;;;;5087526;27;20492;-86
2022/06/23 11:03:41;;;;;;;4.93;1.70;;;34.10;62.20;;;;;;5012238;28;20046;-86
2022/06/23 11:06:31;;;;;;;3.22;1.60;;;34.30;61.90;;;;;;5020245;28;20057;-86
2022/06/23 11:09:03;;;;;;;4.03;1.70;;;34.40;61.90;;;;;;5082518;27;20214;-86
2022/06/23 11:11:54;;;;;;;3.45;1.70;;;34.70;62.20;;;;;;5086257;27;20057;-86
2022/06/23 11:14:55;;;;;;;3.97;1.73;;;35.00;60.70;;;;;;5084463;28;20047;-86
2022/06/23 11:18:03;;;;;;;3.00;1.80;;;34.90;60.60;;;;;;5095605;27;20134;-86
2022/06/23 11:20:47;;;;;;;3.15;1.80;;;35.00;59.50;;;;;;5086990;27;20046;-87
2022/06/23 11:23:46;;;;;;;3.47;1.35;;;35.20;61.40;;;;;;5086440;27;20039;-86
2022/06/23 11:26:35;;;;;;;3.50;1.65;;;35.30;59.50;;;;;;5094507;27;20551;-87
2022/06/23 11:29:17;;;;;;;4.75;1.90;;;35.20;60.40;;;;;;5086442;27;20130;-87
2022/06/23 11:32:02;;;;;;;2.97;1.58;;;35.30;60.10;;;;;;5085844;27;20050;-87
2022/06/23 11:35:02;;;;;;;2.95;1.60;;;35.50;58.60;;;;;;5103024;27;20071;-86
2022/06/23 11:37:34;;;;;;;3.47;1.60;;;35.70;60.10;;;;;;5102611;28;20039;-87
2022/06/23 11:40:15;;;;;;;2.80;1.40;;;35.60;60.10;;;;;;5086865;27;20223;-87
2022/06/23 11:43:00;;;;;;;3.90;1.50;;;35.60;59.30;;;;;;5090069;27;20501;-87
2022/06/23 11:45:32;;;;;;;2.60;1.40;;;35.20;58.90;;;;;;5106906;27;20050;-86
2022/06/23 11:48:31;;;;;;;3.17;1.30;;;35.20;59.80;;;;;;5089492;27;20099;-86
2022/06/23 11:51:06;;;;;;;3.78;1.70;;;35.30;58.70;;;;;;5106215;27;20050;-85
2022/06/23 11:54:14;;;;;;;3.20;1.50;;;35.40;57.90;;;;;;5098907;28;20139;-87
2022/06/23 11:56:48;;;;;;;3.85;1.50;;;35.70;59.40;;;;;;5087614;28;20079;-87
2022/06/23 11:59:20;;;;;;;3.38;1.40;;;35.90;58.10;;;;;;5084783;28;20069;-87
2022/06/23 12:01:46;;;;;;;3.78;1.63;;;35.60;57.80;;;;;;5085379;28;20063;-87
2022/06/23 12:04:35;;;;;;;3.05;1.67;;;35.50;58.40;;;;;;5089752;28;20044;-87
2022/06/23 12:07:33;;;;;;;2.90;1.33;;;35.40;58.20;;;;;;5083985;28;20047;-87
2022/06/23 12:10:24;;;;;;;2.35;1.38;;;35.60;58.30;;;;;;5090715;28;20044;-87
2022/06/23 12:12:56;;;;;;;3.15;1.38;;;35.90;58.10;;;;;;5108029;28;20043;-87
2022/06/23 12:15:47;;;;;;;3.00;1.50;;;36.10;57.50;;;;;;5094334;28;20048;-88
2022/06/23 12:18:25;;;;;;;2.83;1.48;;;36.30;57.70;;;;;;5085451;28;20135;-88
2022/06/23 12:20:53;;;;;;;3.22;1.60;;;36.20;57.80;;;;;;5082439;28;20043;-87
2022/06/23 12:23:42;;;;;;;2.72;1.55;;;35.80;56.90;;;;;;5067547;28;20039;-87
2022/06/23 12:26:23;;;;;;;2.95;1.58;;;35.10;57.20;;;;;;5101136;28;20489;-88
2022/06/23 12:29:06;;;;;;;3.15;1.83;;;34.70;58.70;;;;;;5081902;28;20050;-88
2022/06/23 12:31:46;;;;;;;3.38;1.50;;;34.70;58.70;;;;;;5084038;28;20126;-86
2022/06/23 12:34:31;;;;;;;3.70;1.27;;;35.00;59.20;;;;;;5084402;28;20043;-86
2022/06/23 12:37:18;;;;;;;2.87;1.60;;;35.10;58.70;;;;;;5084910;28;20044;-87
2022/06/23 12:39:54;;;;;;;3.15;1.40;;;35.20;58.60;;;;;;5067650;28;20093;-87
2022/06/23 12:42:37;;;;;;;2.70;1.50;;;35.40;57.90;;;;;;5083634;28;20047;-87
2022/06/23 12:45:05;;;;;;;3.55;1.52;;;35.50;57.60;;;;;;5071653;28;20094;-86
2022/06/23 12:47:59;;;;;;;3.15;1.60;;;35.90;57.90;;;;;;5083193;28;20124;-86
2022/06/23 12:50:56;;;;;;;2.40;1.35;;;36.20;57.60;;;;;;5102143;28;20059;-86
2022/06/23 12:54:11;;;;;;;2.65;1.42;;;36.40;58.50;;;;;;5088625;28;20062;-86
2022/06/23 12:57:01;;;;;;;3.85;2.13;;;36.50;56.40;;;;;;5061063;28;20133;-87
2022/06/23 12:59:40;;;;;;;3.17;1.70;;;36.20;56.40;;;;;;5103457;28;20044;-86
2022/06/23 13:02:30;;;;;;;3.63;1.80;;;36.20;56.60;;;;;;5093993;28;20066;-86
2022/06/23 13:05:08;;;;;;;2.97;1.90;;;36.30;56.60;;;;;;5086642;28;20126;-86
2022/06/23 13:07:56;;;;;;;2.22;1.30;;;36.40;57.30;;;;;;5086621;28;20043;-87
2022/06/23 13:10:36;;;;;;;3.53;1.80;;;36.50;57.50;;;;;;5085539;28;20048;-86
2022/06/23 13:13:18;;;;;;;3.28;1.60;;;36.50;56.50;;;;;;5103360;28;20056;-86
2022/06/23 13:16:00;;;;;;;3.67;2.03;;;36.40;55.80;;;;;;5093394;28;20504;-87
2022/06/23 13:18:36;;;;;;;3.40;1.65;;;36.50;55.80;;;;;;5086491;28;20454;-86
2022/06/23 13:21:29;;;;;;;3.13;1.75;;;36.50;56.50;;;;;;5086731;28;20412;-85
2022/06/23 13:24:07;;;;;;;2.58;1.90;;;36.60;56.50;;;;;;5101883;28;20062;-86
2022/06/23 13:27:03;;;;;;;3.85;1.75;;;36.60;56.20;;;;;;5102411;28;20150;-86
2022/06/23 13:29:40;;;;;;;3.97;1.80;;;36.40;56.20;;;;;;5100632;28;20047;-86
2022/06/23 13:32:34;;;;;;;4.93;2.08;;;36.30;56.40;;;;;;5093592;28;20047;-87
2022/06/23 13:35:16;;;;;;;2.85;1.80;;;36.30;56.70;;;;;;5103391;28;20056;-86
2022/06/23 13:37:59;;;;;;;2.75;1.70;;;36.10;56.30;;;;;;5087759;28;20047;-86
2022/06/23 13:40:47;;;;;;;3.00;1.60;;;36.20;56.80;;;;;;5093619;28;20109;-86
2022/06/23 13:43:16;;;;;;;3.92;1.85;;;36.50;55.90;;;;;;5085677;28;20400;-86
2022/06/23 13:45:54;;;;;;;4.00;1.63;;;36.50;57.00;;;;;;5102761;28;20132;-86
2022/06/23 13:48:44;;;;;;;2.97;1.63;;;36.70;56.00;;;;;;5093463;28;20084;-86
2022/06/23 13:51:20;;;;;;;4.90;1.90;;;36.40;56.20;;;;;;5093528;28;20051;-87
2022/06/23 13:53:50;;;;;;;2.92;1.85;;;36.10;55.70;;;;;;5078737;28;20059;-87
2022/06/23 13:56:19;;;;;;;3.05;1.70;;;36.20;56.20;;;;;;5075370;28;20040;-86
2022/06/23 13:58:57;;;;;;;3.72;1.80;;;36.30;56.30;;;;;;5073652;28;20385;-87
2022/06/23 14:01:44;;;;;;;5.00;1.85;;;36.00;55.90;;;;;;5088792;28;20052;-87
2022/06/23 14:04:45;;;;;;;4.13;1.95;;;35.60;55.50;;;;;;5088754;28;20154;-87
2022/06/23 14:07:36;;;;;;;3.08;1.90;;;35.30;56.10;;;;;;5078386;28;20055;-88